createdAt,value
2018-08-11T00:00:10.906Z,13.80
2018-08-11T00:02:38.356Z,13.70
2018-08-11T00:05:05.840Z,13.70
2018-08-11T00:07:33.307Z,13.60
2018-08-11T00:10:00.854Z,13.60
2018-08-11T00:12:28.320Z,13.50
2018-08-11T00:14:55.793Z,13.60
2018-08-11T00:17:23.246Z,13.60
2018-08-11T00:19:50.719Z,13.60
2018-08-11T00:22:18.187Z,13.60
2018-08-11T00:24:45.643Z,13.80
2018-08-11T00:27:13.103Z,13.60
2018-08-11T00:29:40.662Z,13.70
2018-08-11T00:32:08.184Z,13.60
2018-08-11T00:34:35.681Z,13.70
2018-08-11T00:37:03.246Z,13.70
2018-08-11T00:39:30.816Z,13.70
2018-08-11T00:41:58.371Z,13.70
2018-08-11T00:44:25.842Z,13.80
2018-08-11T00:46:53.287Z,13.80
2018-08-11T00:49:20.781Z,13.70
2018-08-11T00:51:48.227Z,13.70
2018-08-11T00:54:15.678Z,13.70
2018-08-11T00:56:43.141Z,13.70
2018-08-11T00:59:10.610Z,13.70
2018-08-11T01:01:38.238Z,13.70
2018-08-11T01:04:05.733Z,13.70
2018-08-11T01:06:33.183Z,13.80
2018-08-11T01:09:00.658Z,13.80
2018-08-11T01:11:28.184Z,13.70
2018-08-11T01:13:55.687Z,13.80
2018-08-11T01:16:23.142Z,13.80
2018-08-11T01:18:50.621Z,13.70
2018-08-11T01:21:18.184Z,13.70
2018-08-11T01:23:45.637Z,13.70
2018-08-11T01:26:13.195Z,13.70
2018-08-11T01:28:40.659Z,13.60
2018-08-11T01:31:08.124Z,13.70
2018-08-11T01:33:35.573Z,13.70
2018-08-11T01:36:03.047Z,13.60
2018-08-11T01:38:30.511Z,13.50
2018-08-11T01:40:57.955Z,13.50
2018-08-11T01:43:25.431Z,13.50
2018-08-11T01:45:52.891Z,13.40
2018-08-11T01:48:20.342Z,13.40
2018-08-11T01:50:47.806Z,13.40
2018-08-11T01:53:15.275Z,13.20
2018-08-11T01:55:42.743Z,13.30
2018-08-11T01:58:10.207Z,13.30
2018-08-11T02:00:37.666Z,13.20
2018-08-11T02:03:05.232Z,13.30
2018-08-11T02:05:32.818Z,13.30
2018-08-11T02:08:00.283Z,13.30
2018-08-11T02:10:27.826Z,13.20
2018-08-11T02:12:55.390Z,13.10
2018-08-11T02:15:22.854Z,13.20
2018-08-11T02:17:50.417Z,13.10
2018-08-11T02:20:17.883Z,13.20
2018-08-11T02:22:45.340Z,13.20
2018-08-11T02:25:12.807Z,13.30
2018-08-11T02:27:40.260Z,13.30
2018-08-11T02:30:07.732Z,13.10
2018-08-11T02:32:35.191Z,13.20
2018-08-11T02:35:02.663Z,13.30
2018-08-11T02:37:30.202Z,13.40
2018-08-11T02:39:57.772Z,13.40
2018-08-11T02:42:25.332Z,13.40
2018-08-11T02:44:52.900Z,13.50
2018-08-11T02:47:20.363Z,13.60
2018-08-11T02:49:47.923Z,13.60
2018-08-11T02:52:15.487Z,13.50
2018-08-11T02:54:42.939Z,13.60
2018-08-11T02:57:10.417Z,13.50
2018-08-11T02:59:37.872Z,13.60
2018-08-11T03:02:05.458Z,13.60
2018-08-11T03:04:33.673Z,13.60
2018-08-11T03:07:01.136Z,13.50
2018-08-11T03:09:28.639Z,13.50
2018-08-11T03:11:56.211Z,13.60
2018-08-11T03:14:23.777Z,13.60
2018-08-11T03:16:51.352Z,13.50
2018-08-11T03:19:18.861Z,13.70
2018-08-11T03:21:46.305Z,13.70
2018-08-11T03:24:14.526Z,13.60
2018-08-11T03:26:42.000Z,13.60
2018-08-11T03:29:09.474Z,13.60
2018-08-11T03:31:36.928Z,13.70
2018-08-11T03:34:04.391Z,13.60
2018-08-11T03:36:31.848Z,13.60
2018-08-11T03:38:59.318Z,13.70
2018-08-11T03:41:26.848Z,13.60
2018-08-11T03:43:54.316Z,13.60
2018-08-11T03:46:21.780Z,13.70
2018-08-11T03:48:49.256Z,13.70
2018-08-11T03:51:16.703Z,13.60
2018-08-11T03:53:44.169Z,13.70
2018-08-11T03:56:11.617Z,13.80
2018-08-11T03:58:39.078Z,13.80
2018-08-11T04:01:06.571Z,13.90
2018-08-11T04:03:34.143Z,13.90
2018-08-11T04:06:01.611Z,13.80
2018-08-11T04:08:29.072Z,13.80
2018-08-11T04:10:56.624Z,13.80
2018-08-11T04:13:25.095Z,13.80
2018-08-11T04:15:52.574Z,13.80
2018-08-11T04:18:20.029Z,13.80
2018-08-11T04:20:47.483Z,13.80
2018-08-11T04:23:15.059Z,13.80
2018-08-11T04:25:42.626Z,13.80
2018-08-11T04:28:10.193Z,13.80
2018-08-11T04:30:37.753Z,13.70
2018-08-11T04:33:05.236Z,13.70
2018-08-11T04:35:32.717Z,13.70
2018-08-11T04:38:00.149Z,13.80
2018-08-11T04:40:27.598Z,13.80
2018-08-11T04:42:55.052Z,13.80
2018-08-11T04:45:22.508Z,13.70
2018-08-11T04:47:50.074Z,13.70
2018-08-11T04:50:17.609Z,13.70
2018-08-11T04:52:45.123Z,13.80
2018-08-11T04:55:12.636Z,13.80
2018-08-11T04:57:40.088Z,13.80
2018-08-11T05:00:07.602Z,13.80
2018-08-11T05:02:35.160Z,13.80
2018-08-11T05:05:02.645Z,13.70
2018-08-11T05:07:30.862Z,13.80
2018-08-11T05:09:58.325Z,13.80
2018-08-11T05:12:25.788Z,13.80
2018-08-11T05:14:53.352Z,13.80
2018-08-11T05:17:20.803Z,13.90
2018-08-11T05:19:48.347Z,13.90
2018-08-11T05:22:15.876Z,13.90
2018-08-11T05:24:43.443Z,13.80
2018-08-11T05:27:10.899Z,13.90
2018-08-11T05:29:38.477Z,13.90
2018-08-11T05:32:05.946Z,13.90
2018-08-11T05:34:33.399Z,13.90
2018-08-11T05:37:00.968Z,13.90
2018-08-11T05:39:28.431Z,13.90
2018-08-11T05:41:55.892Z,14.00
2018-08-11T05:44:23.343Z,14.00
2018-08-11T05:46:50.907Z,14.10
2018-08-11T05:49:18.464Z,14.10
2018-08-11T05:51:45.934Z,14.20
2018-08-11T05:54:13.396Z,14.30
2018-08-11T05:56:40.958Z,14.30
2018-08-11T05:59:08.417Z,14.40
2018-08-11T06:01:35.987Z,14.40
2018-08-11T06:04:03.610Z,14.50
2018-08-11T06:06:31.003Z,14.50
2018-08-11T06:08:58.457Z,14.60
2018-08-11T06:11:25.916Z,14.70
2018-08-11T06:13:53.387Z,14.80
2018-08-11T06:16:20.849Z,14.90
2018-08-11T06:18:48.324Z,14.90
2018-08-11T06:21:15.815Z,15.00
2018-08-11T06:23:43.258Z,15.00
2018-08-11T06:26:10.723Z,14.90
2018-08-11T06:28:38.271Z,14.90
2018-08-11T06:31:05.735Z,14.90
2018-08-11T06:33:33.197Z,14.80
2018-08-11T06:36:00.761Z,14.80
2018-08-11T06:38:28.323Z,14.80
2018-08-11T06:40:55.962Z,14.80
2018-08-11T06:43:23.252Z,14.70
2018-08-11T06:45:50.711Z,14.70
2018-08-11T06:48:18.280Z,14.80
2018-08-11T06:50:45.799Z,14.80
2018-08-11T06:53:13.247Z,14.90
2018-08-11T06:55:41.528Z,14.90
2018-08-11T06:58:09.043Z,14.90
2018-08-11T07:00:36.599Z,15.00
2018-08-11T07:03:04.166Z,15.00
2018-08-11T07:05:31.620Z,14.90
2018-08-11T07:07:59.087Z,15.00
2018-08-11T07:10:27.374Z,15.00
2018-08-11T07:12:54.938Z,15.00
2018-08-11T07:15:22.535Z,15.10
2018-08-11T07:17:50.060Z,15.30
2018-08-11T07:20:17.526Z,15.50
2018-08-11T07:22:44.980Z,15.80
2018-08-11T07:25:12.443Z,15.90
2018-08-11T07:27:39.922Z,16.00
2018-08-11T07:30:07.435Z,16.20
2018-08-11T07:32:34.938Z,16.40
2018-08-11T07:35:02.404Z,16.30
2018-08-11T07:37:29.867Z,16.30
2018-08-11T07:39:57.439Z,16.40
2018-08-11T07:42:24.897Z,16.40
2018-08-11T07:44:52.354Z,16.40
2018-08-11T07:47:19.819Z,16.50
2018-08-11T07:49:47.384Z,16.60
2018-08-11T07:52:14.852Z,16.60
2018-08-11T07:54:42.309Z,16.60
2018-08-11T07:57:09.766Z,16.70
2018-08-11T07:59:37.214Z,16.70
2018-08-11T08:02:04.797Z,16.80
2018-08-11T08:04:33.295Z,16.90
2018-08-11T08:07:00.849Z,16.80
2018-08-11T08:09:28.403Z,16.90
2018-08-11T08:11:55.978Z,16.80
2018-08-11T08:14:23.527Z,16.80
2018-08-11T08:16:51.007Z,16.80
2018-08-11T08:19:18.475Z,16.80
2018-08-11T08:21:45.935Z,16.80
2018-08-11T08:24:13.483Z,16.80
2018-08-11T08:26:40.968Z,16.60
2018-08-11T08:29:08.420Z,16.70
2018-08-11T08:31:35.896Z,16.90
2018-08-11T08:34:04.145Z,17.10
2018-08-11T08:36:31.610Z,17.10
2018-08-11T08:38:59.062Z,17.10
2018-08-11T08:41:26.518Z,17.10
2018-08-11T08:43:54.002Z,17.00
2018-08-11T08:46:21.559Z,17.00
2018-08-11T08:48:49.011Z,17.10
2018-08-11T08:51:16.485Z,17.20
2018-08-11T08:53:44.047Z,17.30
2018-08-11T08:56:11.518Z,17.50
2018-08-11T08:58:38.968Z,17.40
2018-08-11T09:01:06.432Z,17.20
2018-08-11T09:03:33.904Z,17.20
2018-08-11T09:06:01.371Z,17.50
2018-08-11T09:08:28.831Z,17.60
2018-08-11T09:10:56.302Z,17.50
2018-08-11T09:13:23.845Z,17.70
2018-08-11T09:15:51.307Z,17.40
2018-08-11T09:18:18.777Z,17.20
2018-08-11T09:20:46.337Z,17.30
2018-08-11T09:23:13.786Z,17.50
2018-08-11T09:25:41.355Z,17.40
2018-08-11T09:28:08.819Z,17.40
2018-08-11T09:30:36.391Z,17.70
2018-08-11T09:33:03.953Z,17.60
2018-08-11T09:35:31.416Z,17.60
2018-08-11T09:37:58.868Z,17.80
2018-08-11T09:40:26.332Z,17.80
2018-08-11T09:42:53.784Z,18.00
2018-08-11T09:45:21.243Z,18.10
2018-08-11T09:47:48.708Z,17.90
2018-08-11T09:50:16.188Z,17.60
2018-08-11T09:52:43.659Z,17.50
2018-08-11T09:55:11.127Z,17.80
2018-08-11T09:57:38.679Z,17.90
2018-08-11T10:00:06.241Z,17.70
2018-08-11T10:02:33.711Z,18.00
2018-08-11T10:05:01.195Z,18.00
2018-08-11T10:07:28.640Z,17.90
2018-08-11T10:09:56.187Z,18.10
2018-08-11T10:12:23.755Z,18.20
2018-08-11T10:14:51.212Z,18.50
2018-08-11T10:17:18.786Z,18.30
2018-08-11T10:19:46.251Z,18.20
2018-08-11T10:22:13.706Z,18.30
2018-08-11T10:24:41.162Z,18.30
2018-08-11T10:27:08.622Z,18.40
2018-08-11T10:29:36.184Z,18.40
2018-08-11T10:32:03.657Z,18.40
2018-08-11T10:34:31.214Z,18.50
2018-08-11T10:36:58.678Z,18.70
2018-08-11T10:39:26.246Z,18.80
2018-08-11T10:41:53.808Z,18.50
2018-08-11T10:44:21.261Z,18.50
2018-08-11T10:46:48.733Z,18.50
2018-08-11T10:49:16.313Z,18.80
2018-08-11T10:51:43.765Z,19.10
2018-08-11T10:54:11.220Z,19.20
2018-08-11T10:56:38.671Z,19.10
2018-08-11T10:59:06.169Z,18.90
2018-08-11T11:01:33.625Z,18.90
2018-08-11T11:04:01.849Z,18.90
2018-08-11T11:06:29.311Z,18.90
2018-08-11T11:08:56.776Z,19.00
2018-08-11T11:11:24.251Z,19.00
2018-08-11T11:13:51.738Z,19.30
2018-08-11T11:16:19.295Z,19.50
2018-08-11T11:18:46.857Z,19.20
2018-08-11T11:21:14.424Z,19.10
2018-08-11T11:23:41.883Z,19.10
2018-08-11T11:26:09.336Z,19.10
2018-08-11T11:28:36.795Z,19.20
2018-08-11T11:31:04.256Z,19.30
2018-08-11T11:33:31.715Z,19.60
2018-08-11T11:35:59.199Z,19.30
2018-08-11T11:38:26.652Z,19.30
2018-08-11T11:40:54.218Z,19.40
2018-08-11T11:43:21.692Z,19.20
2018-08-11T11:45:49.137Z,18.90
2018-08-11T11:48:16.575Z,19.00
2018-08-11T11:50:44.039Z,19.10
2018-08-11T11:53:11.545Z,19.10
2018-08-11T11:55:39.102Z,19.20
2018-08-11T11:58:06.556Z,19.20
2018-08-11T12:00:34.031Z,19.30
2018-08-11T12:03:01.506Z,19.30
2018-08-11T12:05:29.053Z,19.30
2018-08-11T12:07:56.512Z,19.20
2018-08-11T12:10:23.963Z,19.20
2018-08-11T12:12:51.444Z,19.10
2018-08-11T12:15:18.958Z,19.20
2018-08-11T12:17:46.471Z,19.30
2018-08-11T12:20:13.928Z,19.20
2018-08-11T12:22:41.496Z,19.30
2018-08-11T12:25:08.965Z,19.30
2018-08-11T12:27:36.415Z,19.30
2018-08-11T12:30:03.971Z,19.30
2018-08-11T12:32:31.427Z,19.30
2018-08-11T12:34:58.997Z,19.40
2018-08-11T12:37:26.458Z,19.60
2018-08-11T12:39:53.920Z,19.70
2018-08-11T12:42:21.495Z,19.70
2018-08-11T12:44:48.961Z,19.70
2018-08-11T12:47:16.519Z,19.80
2018-08-11T12:49:43.992Z,19.90
2018-08-11T12:52:11.456Z,20.10
2018-08-11T12:54:40.414Z,20.20
2018-08-11T12:57:09.011Z,20.30
2018-08-11T12:59:36.462Z,20.30
2018-08-11T13:02:03.966Z,20.30
2018-08-11T13:04:31.522Z,20.30
2018-08-11T13:06:58.984Z,20.10
2018-08-11T13:09:26.441Z,20.20
2018-08-11T13:11:53.908Z,20.30
2018-08-11T13:14:21.352Z,20.30
2018-08-11T13:16:48.824Z,20.40
2018-08-11T13:19:16.275Z,20.40
2018-08-11T13:21:43.735Z,20.40
2018-08-11T13:24:11.199Z,20.60
2018-08-11T13:26:38.656Z,20.60
2018-08-11T13:29:06.131Z,20.40
2018-08-11T13:31:33.599Z,20.20
2018-08-11T13:34:01.155Z,20.30
2018-08-11T13:36:28.723Z,20.40
2018-08-11T13:38:56.178Z,20.60
2018-08-11T13:41:23.661Z,20.70
2018-08-11T13:43:51.119Z,20.70
2018-08-11T13:46:18.582Z,20.60
2018-08-11T13:48:46.036Z,20.70
2018-08-11T13:51:13.596Z,20.80
2018-08-11T13:53:41.059Z,20.80
2018-08-11T13:56:08.635Z,20.70
2018-08-11T13:58:36.187Z,20.70
2018-08-11T14:01:03.642Z,20.70
2018-08-11T14:03:31.104Z,20.80
2018-08-11T14:05:58.582Z,20.90
2018-08-11T14:08:26.137Z,21.00
2018-08-11T14:10:53.593Z,21.00
2018-08-11T14:13:21.072Z,21.00
2018-08-11T14:15:48.531Z,21.20
2018-08-11T14:18:16.050Z,21.20
2018-08-11T14:20:43.511Z,21.10
2018-08-11T14:23:10.977Z,21.00
2018-08-11T14:25:38.470Z,21.00
2018-08-11T14:28:05.890Z,21.20
2018-08-11T14:30:33.350Z,21.00
2018-08-11T14:33:00.873Z,21.10
2018-08-11T14:35:28.327Z,21.00
2018-08-11T14:37:55.797Z,21.00
2018-08-11T14:40:23.348Z,21.20
2018-08-11T14:42:50.799Z,21.30
2018-08-11T14:45:18.254Z,21.30
2018-08-11T14:47:45.702Z,21.10
2018-08-11T14:50:13.202Z,21.10
2018-08-11T14:52:40.663Z,21.30
2018-08-11T14:55:08.132Z,21.30
2018-08-11T14:57:35.702Z,21.00
2018-08-11T15:00:03.257Z,21.30
2018-08-11T15:02:31.527Z,21.40
2018-08-11T15:04:59.002Z,21.40
2018-08-11T15:07:26.559Z,21.30
2018-08-11T15:09:54.125Z,21.60
2018-08-11T15:12:21.604Z,21.70
2018-08-11T15:14:49.152Z,21.70
2018-08-11T15:17:16.608Z,21.60
2018-08-11T15:19:44.174Z,21.60
2018-08-11T15:22:11.638Z,21.40
2018-08-11T15:24:39.111Z,21.50
2018-08-11T15:27:06.575Z,21.60
2018-08-11T15:29:34.036Z,21.30
2018-08-11T15:32:01.498Z,21.40
2018-08-11T15:34:29.053Z,21.40
2018-08-11T15:36:56.512Z,21.60
2018-08-11T15:39:24.070Z,21.70
2018-08-11T15:41:51.528Z,21.50
2018-08-11T15:44:19.013Z,21.50
2018-08-11T15:46:46.584Z,21.60
2018-08-11T15:49:15.568Z,21.60
2018-08-11T15:51:43.019Z,21.60
2018-08-11T15:54:10.496Z,21.50
2018-08-11T15:56:37.935Z,21.60
2018-08-11T15:59:05.404Z,21.60
2018-08-11T16:01:32.858Z,21.60
2018-08-11T16:04:00.341Z,21.50
2018-08-11T16:06:27.805Z,21.50
2018-08-11T16:08:55.275Z,21.50
2018-08-11T16:11:22.733Z,21.60
2018-08-11T16:13:50.196Z,21.70
2018-08-11T16:16:17.659Z,21.60
2018-08-11T16:18:45.104Z,21.40
2018-08-11T16:21:12.573Z,21.50
2018-08-11T16:23:40.136Z,21.40
2018-08-11T16:26:07.659Z,21.40
2018-08-11T16:28:35.222Z,21.40
2018-08-11T16:31:02.733Z,21.00
2018-08-11T16:33:30.188Z,21.10
2018-08-11T16:35:57.754Z,21.00
2018-08-11T16:38:25.320Z,21.10
2018-08-11T16:40:52.887Z,21.10
2018-08-11T16:43:20.440Z,21.10
2018-08-11T16:45:47.897Z,21.00
2018-08-11T16:48:15.375Z,20.90
2018-08-11T16:50:42.843Z,21.10
2018-08-11T16:53:10.391Z,21.10
2018-08-11T16:55:37.959Z,21.30
2018-08-11T16:58:05.438Z,21.20
2018-08-11T17:00:32.993Z,21.00
2018-08-11T17:03:00.443Z,21.00
2018-08-11T17:05:28.007Z,21.00
2018-08-11T17:07:55.778Z,21.20
2018-08-11T17:10:23.344Z,20.90
2018-08-11T17:12:50.802Z,20.90
2018-08-11T17:15:18.275Z,21.00
2018-08-11T17:17:45.839Z,21.10
2018-08-11T17:20:13.301Z,20.90
2018-08-11T17:22:42.256Z,21.10
2018-08-11T17:25:09.760Z,21.10
2018-08-11T17:27:37.218Z,21.00
2018-08-11T17:30:04.679Z,20.90
2018-08-11T17:32:32.196Z,20.90
2018-08-11T17:34:59.603Z,20.90
2018-08-11T17:37:27.069Z,20.80
2018-08-11T17:39:54.588Z,20.90
2018-08-11T17:42:22.028Z,20.90
2018-08-11T17:44:50.259Z,20.70
2018-08-11T17:47:17.795Z,20.70
2018-08-11T17:49:45.296Z,20.80
2018-08-11T17:52:12.769Z,21.00
2018-08-11T17:54:40.215Z,21.00
2018-08-11T17:57:07.781Z,20.80
2018-08-11T17:59:35.238Z,20.90
2018-08-11T18:02:02.695Z,20.80
2018-08-11T18:04:30.150Z,20.70
2018-08-11T18:06:57.674Z,20.80
2018-08-11T18:09:25.084Z,20.90
2018-08-11T18:11:52.561Z,20.80
2018-08-11T18:14:20.123Z,19.70
2018-08-11T18:16:47.579Z,19.10
2018-08-11T18:19:15.027Z,18.90
2018-08-11T18:21:42.487Z,18.60
2018-08-11T18:24:09.982Z,18.50
2018-08-11T18:26:37.432Z,18.40
2018-08-11T18:29:04.905Z,18.30
2018-08-11T18:31:32.459Z,18.20
2018-08-11T18:34:00.021Z,18.30
2018-08-11T18:36:27.487Z,18.20
2018-08-11T18:38:55.045Z,18.20
2018-08-11T18:41:22.516Z,18.00
2018-08-11T18:43:50.076Z,18.10
2018-08-11T18:46:17.532Z,18.10
2018-08-11T18:48:44.998Z,18.10
2018-08-11T18:51:12.465Z,18.10
2018-08-11T18:53:40.035Z,18.00
2018-08-11T18:56:07.486Z,18.10
2018-08-11T18:58:34.952Z,18.10
2018-08-11T19:01:02.457Z,18.00
2018-08-11T19:03:29.885Z,17.90
2018-08-11T19:05:57.339Z,17.90
2018-08-11T19:08:25.580Z,17.80
2018-08-11T19:10:53.027Z,17.80
2018-08-11T19:13:20.499Z,17.60
2018-08-11T19:15:47.959Z,17.60
2018-08-11T19:18:15.468Z,17.50
2018-08-11T19:20:42.923Z,17.40
2018-08-11T19:23:10.492Z,17.50
2018-08-11T19:25:38.179Z,17.60
2018-08-11T19:28:05.622Z,17.80
2018-08-11T19:30:33.181Z,17.50
2018-08-11T19:33:00.643Z,17.50
2018-08-11T19:35:28.105Z,17.40
2018-08-11T19:37:55.662Z,17.30
2018-08-11T19:40:23.129Z,17.50
2018-08-11T19:42:50.605Z,17.40
2018-08-11T19:45:18.062Z,17.20
2018-08-11T19:47:45.629Z,17.20
2018-08-11T19:50:13.127Z,17.10
2018-08-11T19:52:40.556Z,17.30
2018-08-11T19:55:08.119Z,17.30
2018-08-11T19:57:35.572Z,17.20
2018-08-11T20:00:03.029Z,17.00
2018-08-11T20:02:30.508Z,16.90
2018-08-11T20:04:58.780Z,16.80
2018-08-11T20:07:26.344Z,16.80
2018-08-11T20:09:53.810Z,16.80
2018-08-11T20:12:21.361Z,16.90
2018-08-11T20:14:48.831Z,16.90
2018-08-11T20:17:16.405Z,16.80
2018-08-11T20:19:43.861Z,16.70
2018-08-11T20:22:11.330Z,16.70
2018-08-11T20:24:38.807Z,16.70
2018-08-11T20:27:06.227Z,16.60
2018-08-11T20:29:33.700Z,16.50
2018-08-11T20:32:01.154Z,16.60
2018-08-11T20:34:28.611Z,16.70
2018-08-11T20:36:56.084Z,16.70
2018-08-11T20:39:23.653Z,16.80
2018-08-11T20:41:51.215Z,16.90
2018-08-11T20:44:18.776Z,16.90
2018-08-11T20:46:46.347Z,16.80
2018-08-11T20:49:13.820Z,16.60
2018-08-11T20:51:41.288Z,16.60
2018-08-11T20:54:08.769Z,16.60
2018-08-11T20:56:37.076Z,16.60
2018-08-11T20:59:04.527Z,16.60
2018-08-11T21:01:31.987Z,16.50
2018-08-11T21:03:59.455Z,16.50
2018-08-11T21:06:26.973Z,16.50
2018-08-11T21:08:54.427Z,16.40
2018-08-11T21:11:21.903Z,16.30
2018-08-11T21:13:49.359Z,16.20
2018-08-11T21:16:16.821Z,16.10
2018-08-11T21:18:44.284Z,16.10
2018-08-11T21:21:11.768Z,16.00
2018-08-11T21:23:40.064Z,16.00
2018-08-11T21:26:07.484Z,16.00
2018-08-11T21:28:35.051Z,16.10
2018-08-11T21:31:02.509Z,16.00
2018-08-11T21:33:30.072Z,16.00
2018-08-11T21:35:57.636Z,16.00
2018-08-11T21:38:25.095Z,15.90
2018-08-11T21:40:52.542Z,15.90
2018-08-11T21:43:19.998Z,15.90
2018-08-11T21:45:47.453Z,15.90
2018-08-11T21:48:14.934Z,15.90
2018-08-11T21:50:42.385Z,16.00
2018-08-11T21:53:09.844Z,15.90
2018-08-11T21:55:37.304Z,16.10
2018-08-11T21:58:04.758Z,16.10
2018-08-11T22:00:32.249Z,16.20
2018-08-11T22:02:59.703Z,16.20
2018-08-11T22:05:27.192Z,16.20
2018-08-11T22:07:54.648Z,16.30
2018-08-11T22:10:22.115Z,16.20
2018-08-11T22:12:49.666Z,16.20
2018-08-11T22:15:17.119Z,16.20
2018-08-11T22:17:44.687Z,16.10
2018-08-11T22:20:12.140Z,16.00
2018-08-11T22:22:39.604Z,15.90
2018-08-11T22:25:07.072Z,15.90
2018-08-11T22:27:34.531Z,16.00
2018-08-11T22:30:01.994Z,16.00
2018-08-11T22:32:29.461Z,16.10
2018-08-11T22:34:57.032Z,16.10
2018-08-11T22:37:24.492Z,16.10
2018-08-11T22:39:51.954Z,16.00
2018-08-11T22:42:19.402Z,16.00
2018-08-11T22:44:46.877Z,16.00
2018-08-11T22:47:14.476Z,16.00
2018-08-11T22:49:41.999Z,15.90
2018-08-11T22:52:09.455Z,15.90
2018-08-11T22:54:36.912Z,15.90
2018-08-11T22:57:04.369Z,15.90
2018-08-11T22:59:31.823Z,15.90
2018-08-11T23:01:59.316Z,15.90
2018-08-11T23:04:26.877Z,15.90
2018-08-11T23:06:54.339Z,15.90
2018-08-11T23:09:21.901Z,15.90
2018-08-11T23:11:49.460Z,16.00
2018-08-11T23:14:16.928Z,16.00
2018-08-11T23:16:44.389Z,15.90
2018-08-11T23:19:11.955Z,15.80
2018-08-11T23:21:39.412Z,15.80
2018-08-11T23:24:06.871Z,15.80
2018-08-11T23:26:34.334Z,15.70
2018-08-11T23:29:01.785Z,15.70
2018-08-11T23:31:29.267Z,15.70
2018-08-11T23:33:56.790Z,15.70
2018-08-11T23:36:24.296Z,15.60
2018-08-11T23:38:51.742Z,15.70
2018-08-11T23:41:19.220Z,15.70
2018-08-11T23:43:46.777Z,15.80
2018-08-11T23:46:14.256Z,15.80
2018-08-11T23:48:41.719Z,15.70
2018-08-11T23:51:09.279Z,15.60
2018-08-11T23:53:36.731Z,15.60
2018-08-11T23:56:04.193Z,15.60
2018-08-11T23:58:31.675Z,15.70
